Time;durP1;ratioP1;P1;durP2;ratioP2;P2;SDS_P1;SDS_P2;PMS_P1;PMS_P2;Temp;Humidity;BMP_temperature;BMP_pressure;BME280_temperature;BME280_humidity;BME280_pressure;Samples;Min_cycle;Max_cycle;Signal;HPM_P1;HPM_P2
2021/09/03 00:02:21;;;;;;;11.13;7.97;;;11.00;99.90;;;;;;6127202;23;20025;-68
2021/09/03 00:04:46;;;;;;;11.32;7.72;;;11.00;99.90;;;;;;6126904;23;20088;-68
2021/09/03 00:07:12;;;;;;;13.68;9.40;;;10.90;99.90;;;;;;6127176;23;20029;-69
2021/09/03 00:09:38;;;;;;;17.40;10.55;;;10.80;99.90;;;;;;6127779;23;20021;-69
2021/09/03 00:12:06;;;;;;;15.77;10.82;;;10.80;99.90;;;;;;6127312;23;20022;-68
2021/09/03 00:14:32;;;;;;;16.65;11.88;;;10.80;99.90;;;;;;6128952;23;20437;-69
2021/09/03 00:16:59;;;;;;;16.80;10.95;;;10.80;99.90;;;;;;6102143;23;20392;-71
2021/09/03 00:19:24;;;;;;;13.52;10.93;;;10.80;99.90;;;;;;6126785;23;20013;-69
2021/09/03 00:21:51;;;;;;;15.90;9.93;;;10.80;99.90;;;;;;6126907;23;20013;-68
2021/09/03 00:24:17;;;;;;;13.43;10.07;;;10.80;99.90;;;;;;6153222;23;20014;-69
2021/09/03 00:26:42;;;;;;;16.98;11.30;;;10.80;99.90;;;;;;6126622;23;20350;-69
2021/09/03 00:29:08;;;;;;;13.60;10.65;;;10.80;99.90;;;;;;6102276;23;20041;-69
2021/09/03 00:31:34;;;;;;;16.25;10.80;;;10.80;99.90;;;;;;6126295;23;20072;-68
2021/09/03 00:33:59;;;;;;;12.70;10.15;;;10.80;99.90;;;;;;6102144;23;20024;-68
2021/09/03 00:36:25;;;;;;;13.25;10.13;;;10.80;99.90;;;;;;6126441;23;20028;-68
2021/09/03 00:38:50;;;;;;;14.27;10.57;;;10.80;99.90;;;;;;6126925;23;20017;-69
2021/09/03 00:41:16;;;;;;;15.30;11.65;;;10.70;99.90;;;;;;6126413;23;20092;-68
2021/09/03 00:43:41;;;;;;;13.65;10.30;;;10.70;99.90;;;;;;6126551;23;20068;-69
2021/09/03 00:46:07;;;;;;;15.82;11.07;;;10.80;99.90;;;;;;6126369;23;20017;-68
2021/09/03 00:48:33;;;;;;;13.25;10.00;;;10.70;99.90;;;;;;6126502;23;20014;-69
2021/09/03 00:50:59;;;;;;;13.40;9.48;;;10.70;99.90;;;;;;6126472;23;20076;-68
2021/09/03 00:53:24;;;;;;;10.50;8.43;;;10.70;99.90;;;;;;6126492;23;20027;-69
2021/09/03 00:55:51;;;;;;;13.27;8.80;;;10.70;99.90;;;;;;6126413;23;20041;-69
2021/09/03 00:58:20;;;;;;;19.73;12.32;;;10.60;99.90;;;;;;6126873;23;20445;-68
2021/09/03 01:00:49;;;;;;;23.33;13.50;;;10.50;99.90;;;;;;6126138;23;20068;-68
2021/09/03 01:03:16;;;;;;;25.27;15.15;;;10.50;99.90;;;;;;6152925;23;20009;-70
2021/09/03 01:05:42;;;;;;;19.80;11.70;;;10.60;99.90;;;;;;6152757;23;20021;-70
2021/09/03 01:08:07;;;;;;;18.25;12.95;;;10.50;99.90;;;;;;6126347;23;20044;-68
2021/09/03 01:10:34;;;;;;;19.70;13.27;;;10.50;99.90;;;;;;6126313;23;20445;-68
2021/09/03 01:12:59;;;;;;;20.30;12.63;;;10.50;99.90;;;;;;6126462;23;20331;-68
2021/09/03 01:15:25;;;;;;;18.13;11.25;;;10.50;99.90;;;;;;6127958;23;20024;-69
2021/09/03 01:17:51;;;;;;;19.98;12.73;;;10.50;99.90;;;;;;6128188;23;20024;-69
2021/09/03 01:20:17;;;;;;;19.00;12.07;;;10.50;99.90;;;;;;6128503;23;20080;-69
2021/09/03 01:22:42;;;;;;;18.58;11.25;;;10.50;99.90;;;;;;6152758;23;20430;-69
2021/09/03 01:25:09;;;;;;;15.82;11.95;;;10.50;99.90;;;;;;6154571;23;20018;-69
2021/09/03 01:27:35;;;;;;;14.50;10.20;;;10.50;99.90;;;;;;6128574;23;20088;-68
2021/09/03 01:30:01;;;;;;;15.52;11.15;;;10.40;99.90;;;;;;6128240;23;20457;-69
2021/09/03 01:32:27;;;;;;;13.93;10.25;;;10.40;99.90;;;;;;6128078;23;20349;-69
2021/09/03 01:34:52;;;;;;;14.27;10.45;;;10.40;99.90;;;;;;6154402;23;20018;-68
2021/09/03 01:37:18;;;;;;;12.25;9.07;;;10.40;99.90;;;;;;6128046;23;20445;-69
2021/09/03 01:39:43;;;;;;;11.43;7.70;;;10.30;99.90;;;;;;6128142;23;20445;-69
2021/09/03 01:42:09;;;;;;;11.55;8.38;;;10.30;99.90;;;;;;6128413;23;20334;-69
2021/09/03 01:44:34;;;;;;;10.32;7.32;;;10.30;99.90;;;;;;6128105;23;20032;-69
2021/09/03 01:47:00;;;;;;;8.90;6.40;;;10.30;99.90;;;;;;6127987;23;20080;-69
2021/09/03 01:49:26;;;;;;;7.38;5.82;;;10.20;99.90;;;;;;6128252;23;20094;-68
2021/09/03 01:51:51;;;;;;;7.43;4.82;;;10.20;99.90;;;;;;6127951;23;20024;-69
2021/09/03 01:54:17;;;;;;;5.28;4.00;;;10.20;99.90;;;;;;6128132;23;20014;-68
2021/09/03 01:56:43;;;;;;;4.55;3.30;;;10.10;99.90;;;;;;6152918;23;20024;-69
2021/09/03 01:59:09;;;;;;;5.95;4.00;;;10.10;99.90;;;;;;6128025;23;20032;-69
2021/09/03 02:01:35;;;;;;;5.38;3.70;;;10.10;99.90;;;;;;6127829;23;20096;-68
2021/09/03 02:04:00;;;;;;;5.03;4.03;;;10.00;99.90;;;;;;6128007;23;20642;-68
2021/09/03 02:06:26;;;;;;;6.18;4.05;;;10.00;99.90;;;;;;6128049;23;20066;-68
2021/09/03 02:08:52;;;;;;;6.43;4.93;;;10.00;99.90;;;;;;6128134;23;20013;-68
2021/09/03 02:11:17;;;;;;;9.80;4.95;;;10.00;99.90;;;;;;6127803;23;20021;-68
2021/09/03 02:13:43;;;;;;;5.93;4.63;;;9.90;99.90;;;;;;6127777;23;20144;-68
2021/09/03 02:16:08;;;;;;;6.90;4.45;;;9.90;99.90;;;;;;6128024;23;20107;-69
2021/09/03 02:18:34;;;;;;;4.88;4.20;;;9.90;99.90;;;;;;6127941;23;20021;-69
2021/09/03 02:21:01;;;;;;;6.95;5.30;;;9.80;99.90;;;;;;6128161;23;20250;-69
2021/09/03 02:23:26;;;;;;;9.25;5.43;;;9.90;99.90;;;;;;6153835;23;20104;-69
2021/09/03 02:25:52;;;;;;;6.32;4.60;;;9.90;99.90;;;;;;6127759;23;20125;-68
2021/09/03 02:28:18;;;;;;;8.15;5.90;;;9.80;99.90;;;;;;6127674;23;20021;-69
2021/09/03 02:30:45;;;;;;;8.25;6.32;;;9.90;99.90;;;;;;6128163;23;20079;-69
2021/09/03 02:33:11;;;;;;;9.90;6.90;;;9.80;99.90;;;;;;6127531;23;20067;-68
2021/09/03 02:35:38;;;;;;;10.68;7.50;;;9.90;99.90;;;;;;6127612;23;20084;-69
2021/09/03 02:38:04;;;;;;;7.90;5.30;;;9.90;99.90;;;;;;6127575;23;20009;-68
2021/09/03 02:40:29;;;;;;;8.65;5.82;;;9.80;99.90;;;;;;6128151;23;20017;-68
2021/09/03 02:42:55;;;;;;;12.98;8.90;;;9.80;99.90;;;;;;6127774;23;20026;-69
2021/09/03 02:45:22;;;;;;;13.90;7.68;;;9.80;99.90;;;;;;6127729;23;20028;-69
2021/09/03 02:47:47;;;;;;;12.68;8.57;;;9.70;99.90;;;;;;6127502;23;20013;-68
2021/09/03 02:50:13;;;;;;;21.40;12.93;;;9.70;99.90;;;;;;6154087;23;20525;-69
2021/09/03 02:52:39;;;;;;;30.65;19.10;;;9.70;99.90;;;;;;6127220;23;20028;-68
2021/09/03 02:55:05;;;;;;;49.10;19.33;;;9.60;99.90;;;;;;6103151;23;20084;-68
2021/09/03 02:57:30;;;;;;;59.13;21.02;;;9.60;99.90;;;;;;6127271;23;20085;-68
2021/09/03 02:59:56;;;;;;;194.95;23.30;;;9.50;99.90;;;;;;6103093;23;20107;-68
2021/09/03 03:02:22;;;;;;;88.70;21.02;;;9.50;99.90;;;;;;6153609;23;20021;-68
2021/09/03 03:04:47;;;;;;;155.10;20.45;;;9.40;99.90;;;;;;6127332;23;20032;-69
2021/09/03 03:07:13;;;;;;;109.22;18.80;;;9.30;99.90;;;;;;6127552;23;20022;-68
2021/09/03 03:09:38;;;;;;;104.93;17.48;;;9.20;99.90;;;;;;6127213;23;20045;-68
2021/09/03 03:12:04;;;;;;;54.40;15.95;;;9.20;99.90;;;;;;6102782;23;20014;-69
2021/09/03 03:14:33;;;;;;;35.22;15.70;;;9.10;99.90;;;;;;6102684;23;20468;-68
2021/09/03 03:17:01;;;;;;;20.40;15.40;;;9.10;99.90;;;;;;6127293;23;20018;-69
2021/09/03 03:19:26;;;;;;;21.95;15.60;;;9.20;99.90;;;;;;6127127;23;20044;-68
2021/09/03 03:21:52;;;;;;;20.63;14.68;;;9.20;99.90;;;;;;6126964;23;20386;-68
2021/09/03 03:24:18;;;;;;;20.33;14.20;;;9.30;99.90;;;;;;6127140;23;20091;-68
2021/09/03 03:26:44;;;;;;;20.88;14.73;;;9.40;99.90;;;;;;6127395;23;20049;-68
2021/09/03 03:29:10;;;;;;;22.23;15.20;;;9.30;99.90;;;;;;6102729;23;20544;-69
2021/09/03 03:31:35;;;;;;;22.80;15.50;;;9.40;99.90;;;;;;6127172;23;20018;-68
2021/09/03 03:34:02;;;;;;;23.33;16.13;;;9.40;99.90;;;;;;6127049;23;20425;-68
2021/09/03 03:36:27;;;;;;;20.52;14.63;;;9.40;99.90;;;;;;6127376;23;20017;-69
2021/09/03 03:38:54;;;;;;;24.40;16.00;;;9.40;99.90;;;;;;6127167;23;20341;-68
2021/09/03 03:41:20;;;;;;;20.38;14.02;;;9.40;99.90;;;;;;6127002;23;20024;-69
2021/09/03 03:43:45;;;;;;;17.95;12.65;;;9.50;99.90;;;;;;6126940;23;20017;-68
2021/09/03 03:46:11;;;;;;;18.00;12.57;;;9.40;99.90;;;;;;6102541;23;20014;-68
2021/09/03 03:48:36;;;;;;;16.25;12.45;;;9.40;99.90;;;;;;6153078;23;20064;-68
2021/09/03 03:51:02;;;;;;;21.70;14.38;;;9.30;99.90;;;;;;6153661;23;20074;-68
2021/09/03 03:53:27;;;;;;;20.67;14.27;;;9.30;99.90;;;;;;6127159;23;20018;-69
2021/09/03 03:55:53;;;;;;;51.92;17.73;;;9.30;99.90;;;;;;6102401;23;20020;-68
2021/09/03 03:58:18;;;;;;;41.53;15.88;;;9.30;99.90;;;;;;6126905;23;20021;-68
2021/09/03 04:00:44;;;;;;;37.17;16.27;;;9.20;99.90;;;;;;6126492;23;20014;-69
2021/09/03 04:03:10;;;;;;;21.63;15.20;;;9.20;99.90;;;;;;6126798;23;20021;-69
2021/09/03 04:05:36;;;;;;;19.50;14.48;;;9.20;99.90;;;;;;6127025;23;20014;-69
2021/09/03 04:08:02;;;;;;;20.30;15.25;;;9.30;99.90;;;;;;6126913;23;20040;-68
2021/09/03 04:10:27;;;;;;;20.17;15.35;;;9.30;99.90;;;;;;6152956;23;20045;-69
2021/09/03 04:12:53;;;;;;;19.33;14.88;;;9.30;99.90;;;;;;6126707;23;20058;-68
2021/09/03 04:15:18;;;;;;;21.08;15.70;;;9.30;99.90;;;;;;6126644;23;20040;-68
2021/09/03 04:17:44;;;;;;;18.20;13.68;;;9.30;99.90;;;;;;6153263;23;20010;-68
2021/09/03 04:20:10;;;;;;;21.05;15.35;;;9.30;99.90;;;;;;6153042;23;20013;-68
2021/09/03 04:22:36;;;;;;;26.83;15.35;;;9.30;99.90;;;;;;6126497;23;20111;-68
2021/09/03 04:25:02;;;;;;;34.53;15.70;;;9.20;99.90;;;;;;6126543;23;20037;-68
2021/09/03 04:27:27;;;;;;;21.25;14.93;;;9.20;99.90;;;;;;6126713;23;20021;-68
2021/09/03 04:29:53;;;;;;;19.02;14.18;;;9.10;99.90;;;;;;6102339;23;20010;-69
2021/09/03 04:32:18;;;;;;;18.35;13.57;;;9.20;99.90;;;;;;6152676;23;20017;-68
2021/09/03 04:34:44;;;;;;;19.08;13.85;;;9.20;99.90;;;;;;6152619;23;20022;-69
2021/09/03 04:37:10;;;;;;;20.05;14.32;;;9.20;99.90;;;;;;6126494;23;20015;-68
2021/09/03 04:39:35;;;;;;;17.35;12.45;;;9.20;99.90;;;;;;6126385;23;20444;-68
2021/09/03 04:42:01;;;;;;;16.42;12.30;;;9.20;99.90;;;;;;6126495;23;20020;-68
2021/09/03 04:44:26;;;;;;;17.40;12.55;;;9.20;99.90;;;;;;6126339;23;20028;-68
2021/09/03 04:46:52;;;;;;;14.18;10.38;;;9.20;99.90;;;;;;6126400;23;20445;-69
2021/09/03 04:49:17;;;;;;;16.02;9.75;;;9.20;99.90;;;;;;6101973;23;20430;-68
2021/09/03 04:51:43;;;;;;;19.52;10.88;;;9.20;99.90;;;;;;6152290;23;20349;-68
2021/09/03 04:54:08;;;;;;;21.67;11.70;;;9.20;99.90;;;;;;6125961;23;20021;-68
2021/09/03 04:56:35;;;;;;;20.92;10.43;;;9.10;99.90;;;;;;6125712;23;20056;-68
2021/09/03 04:59:01;;;;;;;20.58;12.38;;;9.10;99.90;;;;;;6126414;23;20025;-68
2021/09/03 05:01:26;;;;;;;16.10;10.77;;;9.10;99.90;;;;;;6126292;23;20009;-68
2021/09/03 05:03:52;;;;;;;16.23;10.95;;;9.10;99.90;;;;;;6102296;23;20017;-68
2021/09/03 05:06:18;;;;;;;18.25;10.98;;;9.00;99.90;;;;;;6126228;23;20349;-68
2021/09/03 05:08:44;;;;;;;16.85;11.25;;;9.00;99.90;;;;;;6152455;23;20017;-68
2021/09/03 05:11:09;;;;;;;18.92;12.30;;;9.00;99.90;;;;;;6126094;23;20397;-68
2021/09/03 05:13:35;;;;;;;22.35;13.70;;;9.00;99.90;;;;;;6126285;23;20014;-70
2021/09/03 05:16:00;;;;;;;22.23;13.45;;;9.00;99.90;;;;;;6126540;23;20017;-68
2021/09/03 05:18:26;;;;;;;25.40;14.13;;;9.10;99.90;;;;;;6126329;23;20129;-68
2021/09/03 05:20:52;;;;;;;22.75;14.10;;;9.20;99.90;;;;;;6152233;23;20310;-68
2021/09/03 05:23:17;;;;;;;22.05;13.73;;;9.20;99.90;;;;;;6126050;23;20032;-68
2021/09/03 05:25:43;;;;;;;34.10;17.55;;;9.20;99.90;;;;;;6126080;23;20072;-68
2021/09/03 05:28:09;;;;;;;35.00;16.75;;;9.30;99.90;;;;;;6126602;23;20285;-68
2021/09/03 05:30:35;;;;;;;36.20;17.77;;;9.30;99.90;;;;;;6126038;23;20017;-68
2021/09/03 05:33:00;;;;;;;25.00;14.65;;;9.40;99.90;;;;;;6152895;23;20016;-69
2021/09/03 05:35:29;;;;;;;25.63;16.15;;;9.50;99.90;;;;;;6126049;23;20014;-68
2021/09/03 05:37:55;;;;;;;35.83;16.52;;;9.60;99.90;;;;;;6126138;23;20018;-68
2021/09/03 05:40:22;;;;;;;29.60;16.00;;;9.70;99.90;;;;;;6125995;23;20175;-68
2021/09/03 05:42:49;;;;;;;22.13;14.90;;;9.80;99.90;;;;;;6101766;23;20025;-68
2021/09/03 05:45:15;;;;;;;24.73;15.45;;;9.90;99.90;;;;;;6126495;23;20068;-68
2021/09/03 05:47:45;;;;;;;22.35;14.68;;;10.00;99.90;;;;;;6125958;23;20017;-69
2021/09/03 05:50:12;;;;;;;26.00;16.02;;;10.20;99.90;;;;;;6126158;23;20013;-68
2021/09/03 05:52:38;;;;;;;27.08;16.02;;;10.30;99.90;;;;;;6125765;23;20028;-68
2021/09/03 05:55:04;;;;;;;28.25;16.63;;;10.60;99.90;;;;;;6101678;23;20010;-68
2021/09/03 05:57:30;;;;;;;26.15;17.38;;;11.10;99.90;;;;;;6125887;23;20028;-69
2021/09/03 05:59:56;;;;;;;25.00;17.23;;;11.70;99.90;;;;;;6126368;23;20327;-68
2021/09/03 06:02:21;;;;;;;22.67;16.27;;;12.20;99.90;;;;;;6127733;23;20013;-69
2021/09/03 06:04:47;;;;;;;23.25;16.63;;;12.90;99.90;;;;;;6127945;23;20185;-69
2021/09/03 06:07:12;;;;;;;24.92;15.60;;;13.70;99.90;;;;;;6127744;23;20065;-69
2021/09/03 06:09:38;;;;;;;21.48;14.73;;;14.50;99.90;;;;;;6154305;23;20437;-69
2021/09/03 06:12:04;;;;;;;21.45;15.50;;;15.20;99.90;;;;;;6127621;23;20055;-69
2021/09/03 06:14:29;;;;;;;22.42;15.98;;;15.80;99.90;;;;;;6127613;23;20056;-69
2021/09/03 06:16:55;;;;;;;23.75;16.08;;;16.40;99.90;;;;;;6103310;23;20021;-69
2021/09/03 06:19:21;;;;;;;18.95;15.38;;;16.80;99.90;;;;;;6127904;23;20020;-69
2021/09/03 06:21:47;;;;;;;17.35;13.40;;;17.50;99.90;;;;;;6103135;23;20145;-69
2021/09/03 06:24:32;;;;;;;13.43;11.48;;;18.10;99.90;;;;;;6127923;23;20025;-68
2021/09/03 06:27:00;;;;;;;12.85;11.57;;;18.80;99.90;;;;;;6127788;23;20453;-69
2021/09/03 06:29:42;;;;;;;11.95;10.70;;;19.50;99.90;;;;;;6154430;23;20017;-69
2021/09/03 06:32:15;;;;;;;11.77;10.68;;;20.00;99.60;;;;;;6103567;23;20728;-70
2021/09/03 06:34:43;;;;;;;12.10;10.90;;;20.50;98.50;;;;;;6127837;23;20041;-69
2021/09/03 06:37:09;;;;;;;13.07;11.68;;;20.80;97.50;;;;;;6127668;23;20028;-69
2021/09/03 06:39:36;;;;;;;12.43;11.13;;;20.70;97.50;;;;;;6127545;23;20006;-69
2021/09/03 06:42:03;;;;;;;12.55;11.27;;;20.40;97.90;;;;;;6127457;23;20017;-69
2021/09/03 06:44:28;;;;;;;14.02;12.50;;;21.00;97.20;;;;;;6127559;23;20085;-69
2021/09/03 06:46:54;;;;;;;13.90;12.40;;;21.50;96.90;;;;;;6127423;23;20053;-69
2021/09/03 06:49:19;;;;;;;12.80;11.40;;;21.70;96.50;;;;;;6127476;23;20025;-69
2021/09/03 06:51:45;;;;;;;14.02;12.52;;;22.10;96.10;;;;;;6153724;23;20023;-69
2021/09/03 06:54:10;;;;;;;14.95;13.38;;;22.10;96.00;;;;;;6127533;23;20013;-69
2021/09/03 06:56:36;;;;;;;14.35;12.73;;;22.10;96.30;;;;;;6127310;23;20411;-69
2021/09/03 06:59:02;;;;;;;17.15;14.40;;;22.80;95.60;;;;;;6153876;23;20013;-69
2021/09/03 07:01:28;;;;;;;17.92;14.82;;;23.20;94.70;;;;;;6103042;23;20009;-69
2021/09/03 07:03:54;;;;;;;14.68;13.23;;;23.20;95.00;;;;;;6153713;23;20013;-69
2021/09/03 07:06:19;;;;;;;14.25;12.75;;;24.00;94.90;;;;;;6102983;23;20017;-69
2021/09/03 07:08:45;;;;;;;15.50;13.50;;;24.30;93.70;;;;;;6127160;23;20333;-69
2021/09/03 07:11:11;;;;;;;15.98;13.90;;;24.50;93.30;;;;;;6102625;23;20341;-69
2021/09/03 07:13:36;;;;;;;17.88;14.90;;;24.80;92.40;;;;;;6126730;23;20017;-69
2021/09/03 07:16:03;;;;;;;18.85;14.77;;;25.10;92.00;;;;;;6127237;23;20009;-69
2021/09/03 07:18:28;;;;;;;18.80;14.70;;;25.40;91.20;;;;;;6127464;23;20010;-70
2021/09/03 07:20:54;;;;;;;19.15;13.82;;;25.80;91.00;;;;;;6153774;23;20010;-69
2021/09/03 07:23:19;;;;;;;22.65;13.82;;;25.80;90.80;;;;;;6126892;23;20026;-69
2021/09/03 07:25:45;;;;;;;20.02;12.73;;;25.70;90.30;;;;;;6153609;23;20020;-69
2021/09/03 07:28:10;;;;;;;16.55;12.25;;;24.70;89.70;;;;;;6127060;23;20052;-69
2021/09/03 07:30:36;;;;;;;15.98;11.48;;;24.50;91.50;;;;;;6102663;23;20022;-69
2021/09/03 07:33:01;;;;;;;15.23;12.00;;;24.20;92.80;;;;;;6126870;23;20018;-69
2021/09/03 07:35:27;;;;;;;19.17;11.18;;;23.50;93.80;;;;;;6127057;23;20504;-69
2021/09/03 07:37:53;;;;;;;17.75;12.30;;;22.60;95.70;;;;;;6153443;23;20080;-69
2021/09/03 07:40:18;;;;;;;16.60;11.85;;;21.50;98.50;;;;;;6153560;23;20013;-69
2021/09/03 07:42:45;;;;;;;13.60;10.57;;;21.50;99.10;;;;;;6126711;23;20013;-69
2021/09/03 07:45:11;;;;;;;16.92;10.57;;;20.80;99.90;;;;;;6102534;23;20028;-69
2021/09/03 07:47:37;;;;;;;15.05;10.35;;;20.20;99.90;;;;;;6126908;23;20469;-69
2021/09/03 07:50:03;;;;;;;14.55;9.50;;;20.00;99.90;;;;;;6102539;23;20112;-69
2021/09/03 07:52:29;;;;;;;13.10;9.55;;;19.90;99.90;;;;;;6126902;23;20030;-69
2021/09/03 07:54:55;;;;;;;11.70;8.48;;;19.80;99.90;;;;;;6126813;23;20105;-69
2021/09/03 07:57:20;;;;;;;14.07;9.32;;;19.60;99.90;;;;;;6102445;23;20013;-69
2021/09/03 07:59:46;;;;;;;13.30;8.75;;;19.30;99.90;;;;;;6152818;23;20044;-69
2021/09/03 08:02:11;;;;;;;12.32;8.57;;;19.50;99.90;;;;;;6126741;23;20009;-69
2021/09/03 08:04:37;;;;;;;14.05;8.65;;;19.50;99.90;;;;;;6153164;23;20036;-69
2021/09/03 08:07:03;;;;;;;13.77;8.55;;;19.30;99.90;;;;;;6126746;23;20025;-69
2021/09/03 08:09:28;;;;;;;15.38;9.20;;;19.40;99.90;;;;;;6153083;23;20056;-69
2021/09/03 08:11:54;;;;;;;15.25;8.68;;;19.20;99.90;;;;;;6126579;23;20093;-69
2021/09/03 08:14:19;;;;;;;10.48;7.38;;;19.30;99.90;;;;;;6126612;23;20013;-69
2021/09/03 08:16:45;;;;;;;12.95;7.40;;;19.10;99.90;;;;;;6126711;23;20441;-69
2021/09/03 08:19:11;;;;;;;13.48;8.02;;;19.20;99.90;;;;;;6152907;23;20017;-69
2021/09/03 08:21:36;;;;;;;13.63;7.55;;;19.10;99.90;;;;;;6126082;23;20454;-69
2021/09/03 08:24:03;;;;;;;13.57;7.60;;;19.10;99.90;;;;;;6125062;23;20021;-69
2021/09/03 08:26:29;;;;;;;14.93;7.32;;;18.80;99.90;;;;;;6125642;23;20481;-69
2021/09/03 08:28:55;;;;;;;13.68;6.95;;;18.90;99.90;;;;;;6151724;23;20021;-69
2021/09/03 08:31:20;;;;;;;12.38;7.00;;;18.70;99.90;;;;;;6125365;23;20322;-69
2021/09/03 08:33:46;;;;;;;14.68;7.00;;;18.80;99.90;;;;;;6125192;23;20021;-69
2021/09/03 08:36:12;;;;;;;10.73;6.55;;;18.80;99.90;;;;;;6125358;23;20009;-69
2021/09/03 08:38:37;;;;;;;12.32;7.40;;;19.00;99.90;;;;;;6100890;23;20040;-69
2021/09/03 08:41:03;;;;;;;13.23;7.45;;;18.60;99.90;;;;;;6125365;23;20423;-69
2021/09/03 08:43:29;;;;;;;12.07;7.00;;;18.70;99.90;;;;;;6125163;23;20096;-69
2021/09/03 08:45:55;;;;;;;15.30;7.93;;;18.80;99.90;;;;;;6125422;23;20023;-69
2021/09/03 08:48:21;;;;;;;14.68;7.97;;;18.80;99.90;;;;;;6151456;23;20013;-69
2021/09/03 08:50:49;;;;;;;14.93;7.80;;;18.80;99.90;;;;;;6125119;23;20017;-69
2021/09/03 08:53:17;;;;;;;13.32;7.88;;;18.60;99.90;;;;;;6125169;23;20013;-69
2021/09/03 08:55:45;;;;;;;14.05;7.10;;;18.50;99.90;;;;;;6151589;23;20390;-76
2021/09/03 08:58:11;;;;;;;12.80;7.68;;;18.50;99.90;;;;;;6125278;23;20009;-76
2021/09/03 09:00:36;;;;;;;16.35;8.10;;;18.60;99.90;;;;;;6125126;23;20390;-76
2021/09/03 09:03:12;;;;;;;15.90;8.15;;;18.60;99.90;;;;;;6125270;23;20049;-75
2021/09/03 09:05:47;;;;;;;14.30;7.75;;;18.70;99.90;;;;;;6125148;23;20330;-75
2021/09/03 09:08:13;;;;;;;22.23;8.00;;;18.80;99.90;;;;;;6125158;23;20089;-75
2021/09/03 09:10:59;;;;;;;14.60;7.05;;;18.60;99.90;;;;;;6124966;23;20052;-75
2021/09/03 09:13:36;;;;;;;18.00;8.82;;;18.70;99.90;;;;;;6125095;23;20028;-75
2021/09/03 09:16:12;;;;;;;16.02;9.05;;;18.70;99.90;;;;;;6124953;23;20020;-76
2021/09/03 09:18:48;;;;;;;14.68;8.77;;;18.70;99.90;;;;;;6100898;23;20013;-75
2021/09/03 09:21:15;;;;;;;14.37;9.00;;;18.50;99.90;;;;;;6080523;23;1041197;-75
2021/09/03 09:23:50;;;;;;;18.10;9.02;;;18.20;99.90;;;;;;6125923;23;20527;-75
2021/09/03 09:26:17;;;;;;;19.63;9.40;;;18.50;99.90;;;;;;6126205;23;20021;-76
2021/09/03 09:28:44;;;;;;;13.77;9.30;;;18.30;99.90;;;;;;6152681;23;20013;-76
2021/09/03 09:31:10;;;;;;;16.33;8.88;;;18.30;99.90;;;;;;6126116;23;20032;-75
2021/09/03 09:33:36;;;;;;;18.23;9.95;;;18.40;99.90;;;;;;6126426;23;20014;-76
2021/09/03 09:36:03;;;;;;;18.13;9.82;;;18.50;99.90;;;;;;6102770;23;20055;-76
2021/09/03 09:38:38;;;;;;;15.27;9.20;;;18.40;99.90;;;;;;6128185;23;20013;-76
2021/09/03 09:41:08;;;;;;;15.57;9.95;;;18.50;99.90;;;;;;6128116;23;20020;-75
2021/09/03 09:43:39;;;;;;;19.38;10.75;;;18.40;99.90;;;;;;6128163;23;20461;-76
2021/09/03 09:46:37;;;;;;;17.85;9.75;;;18.40;99.90;;;;;;6128033;23;20025;-75
2021/09/03 09:49:06;;;;;;;17.63;11.00;;;18.40;99.90;;;;;;6128071;23;20014;-76
2021/09/03 09:51:41;;;;;;;19.70;10.85;;;18.10;99.90;;;;;;6127919;23;20057;-75
2021/09/03 09:54:10;;;;;;;18.88;11.98;;;18.00;99.90;;;;;;6103794;23;20088;-76
2021/09/03 09:56:41;;;;;;;17.83;9.57;;;18.20;99.90;;;;;;6127908;23;20010;-76
2021/09/03 09:59:09;;;;;;;19.95;12.07;;;18.20;99.90;;;;;;6154529;23;20015;-76
2021/09/03 10:01:37;;;;;;;20.02;11.77;;;18.10;99.90;;;;;;6103777;23;20040;-76
2021/09/03 10:04:14;;;;;;;19.00;11.38;;;18.00;99.90;;;;;;6127839;23;20384;-75
2021/09/03 10:06:42;;;;;;;18.90;11.52;;;18.00;99.90;;;;;;6127897;23;20009;-75
2021/09/03 10:09:11;;;;;;;17.33;11.38;;;18.10;99.90;;;;;;6127805;23;20057;-75
2021/09/03 10:11:38;;;;;;;17.90;11.05;;;18.30;99.90;;;;;;6127657;23;20017;-76
2021/09/03 10:14:05;;;;;;;18.88;12.45;;;18.50;99.90;;;;;;6127922;23;20013;-75
2021/09/03 10:16:31;;;;;;;17.45;10.60;;;18.70;99.90;;;;;;6127629;23;20020;-75
2021/09/03 10:18:59;;;;;;;19.20;11.82;;;18.90;99.90;;;;;;6103411;23;20024;-76
2021/09/03 10:21:27;;;;;;;17.52;10.65;;;18.90;99.90;;;;;;6127525;23;20055;-75
2021/09/03 10:23:57;;;;;;;15.25;10.35;;;19.10;99.90;;;;;;6127826;23;20048;-76
2021/09/03 10:26:25;;;;;;;14.95;10.25;;;19.10;99.90;;;;;;6127688;23;20072;-75
2021/09/03 10:29:34;;;;;;;14.65;10.63;;;18.80;99.90;;;;;;6127694;23;20009;-75
2021/09/03 10:34:55;;;;;;;15.93;11.15;;;19.00;99.90;;;;;;6010868;23;20053;-75
2021/09/03 10:37:21;;;;;;;19.70;11.02;;;19.20;99.90;;;;;;6072686;23;20045;-75
2021/09/03 10:39:55;;;;;;;18.60;12.20;;;19.30;99.90;;;;;;6103246;23;20013;-76
2021/09/03 10:42:37;;;;;;;15.50;9.98;;;19.10;99.90;;;;;;6127457;23;20024;-75
2021/09/03 10:45:11;;;;;;;18.75;10.73;;;19.20;99.90;;;;;;6127617;23;20018;-76
2021/09/03 10:48:07;;;;;;;15.20;9.75;;;19.20;99.90;;;;;;6127386;23;20048;-75
2021/09/03 10:50:46;;;;;;;18.10;10.13;;;19.40;99.90;;;;;;6153807;23;20028;-75
2021/09/03 10:53:16;;;;;;;14.60;9.80;;;19.50;99.90;;;;;;6127558;23;20018;-75
2021/09/03 10:56:17;;;;;;;17.40;9.48;;;19.60;99.90;;;;;;6127544;23;20095;-75
2021/09/03 10:58:51;;;;;;;12.52;7.90;;;19.60;99.90;;;;;;6127507;23;20437;-75
2021/09/03 11:01:27;;;;;;;13.65;9.68;;;19.70;99.90;;;;;;6102818;23;20009;-75
2021/09/03 11:03:55;;;;;;;11.55;8.35;;;19.20;99.90;;;;;;6127537;23;20068;-75
2021/09/03 11:06:35;;;;;;;14.05;9.38;;;19.20;99.90;;;;;;6127278;23;20017;-76
2021/09/03 11:09:01;;;;;;;12.20;9.38;;;19.40;99.90;;;;;;6102857;23;20021;-75
2021/09/03 11:11:34;;;;;;;13.35;8.80;;;19.40;99.90;;;;;;6127230;23;20023;-76
2021/09/03 11:14:07;;;;;;;14.48;8.80;;;19.60;99.90;;;;;;6127287;23;20022;-75
2021/09/03 11:16:38;;;;;;;10.25;8.00;;;19.30;99.90;;;;;;6127158;23;20017;-72
2021/09/03 11:19:21;;;;;;;11.60;7.78;;;19.40;99.90;;;;;;6153816;23;20048;-71
2021/09/03 11:21:50;;;;;;;10.95;7.68;;;19.20;99.90;;;;;;6126857;23;20020;-71
2021/09/03 11:24:21;;;;;;;11.43;8.15;;;18.90;99.90;;;;;;6151783;23;20071;-71
2021/09/03 11:26:49;;;;;;;13.17;8.17;;;19.20;99.90;;;;;;6153662;23;20006;-71
2021/09/03 11:29:30;;;;;;;12.48;8.00;;;19.50;99.90;;;;;;6153205;23;20697;-71
2021/09/03 11:32:10;;;;;;;13.13;8.10;;;19.80;99.90;;;;;;6153282;23;20029;-71
2021/09/03 11:34:45;;;;;;;13.13;8.00;;;19.70;99.90;;;;;;6153307;23;20013;-71
2021/09/03 11:37:19;;;;;;;11.95;7.97;;;19.50;99.90;;;;;;6153359;23;20020;-71
2021/09/03 11:39:45;;;;;;;12.45;7.88;;;19.60;99.90;;;;;;6153269;23;20014;-71
2021/09/03 11:42:31;;;;;;;11.07;6.57;;;19.80;99.90;;;;;;6153401;23;20472;-71
2021/09/03 11:45:03;;;;;;;10.77;7.15;;;20.00;99.90;;;;;;6127001;23;20018;-71
2021/09/03 11:47:35;;;;;;;9.95;7.65;;;20.20;99.90;;;;;;6153331;23;20386;-71
2021/09/03 11:50:12;;;;;;;9.77;7.45;;;20.40;99.90;;;;;;6153063;23;20453;-71
2021/09/03 11:52:39;;;;;;;10.68;7.50;;;20.40;99.90;;;;;;6152933;23;20445;-71
2021/09/03 11:55:08;;;;;;;11.48;7.70;;;20.50;99.90;;;;;;6153445;23;20329;-71
2021/09/03 11:57:57;;;;;;;8.35;6.93;;;20.70;99.80;;;;;;6152958;23;20032;-71
2021/09/03 12:00:25;;;;;;;11.23;8.25;;;21.00;98.40;;;;;;6153052;23;20010;-71
2021/09/03 12:02:52;;;;;;;12.40;8.27;;;20.90;99.90;;;;;;6152828;23;20014;-71
2021/09/03 12:05:18;;;;;;;10.93;8.00;;;20.90;99.90;;;;;;6126812;23;20029;-71
2021/09/03 12:08:10;;;;;;;10.93;8.55;;;20.90;99.90;;;;;;6153269;23;20013;-71
2021/09/03 12:10:38;;;;;;;11.70;8.85;;;21.10;99.90;;;;;;6153611;23;20048;-71
2021/09/03 12:13:05;;;;;;;14.38;9.18;;;21.20;99.00;;;;;;6153429;23;20017;-71
2021/09/03 12:15:31;;;;;;;10.88;9.00;;;21.10;99.90;;;;;;6153173;23;20088;-71
2021/09/03 12:17:57;;;;;;;12.85;9.70;;;21.10;99.20;;;;;;6126561;23;20475;-71
2021/09/03 12:20:22;;;;;;;12.90;8.93;;;20.90;99.50;;;;;;6153159;23;20013;-71
2021/09/03 12:22:56;;;;;;;12.88;9.20;;;20.90;99.90;;;;;;6152530;23;20049;-71
2021/09/03 12:25:33;;;;;;;12.48;9.23;;;21.10;99.90;;;;;;6153126;23;20028;-71
2021/09/03 12:28:15;;;;;;;11.30;9.07;;;21.40;99.40;;;;;;6151088;23;20113;-71
2021/09/03 12:30:41;;;;;;;12.35;9.55;;;21.20;99.90;;;;;;6153232;23;20010;-75
2021/09/03 12:33:20;;;;;;;10.30;8.45;;;20.70;99.90;;;;;;6126423;23;20468;-74
2021/09/03 12:38:34;;;;;;;13.88;9.45;;;20.40;99.90;;;;;;6182577;23;20039;-68
2021/09/03 12:41:08;;;;;;;12.27;8.90;;;20.00;99.90;;;;;;6156079;23;20326;-68
2021/09/03 12:43:34;;;;;;;13.02;9.18;;;20.10;99.90;;;;;;6155886;23;20071;-69
2021/09/03 12:46:09;;;;;;;13.07;8.75;;;20.10;99.90;;;;;;6182322;23;20017;-69